Terminal Aerodrome Forecast
Issued by NWS Wilmington, OH

Current Version | Previous Version | Text Only | Print | Product List | Glossary Off
Versions: 1 2 3 4 5 6 7 8 9 10 11 12 13 14 15 16 17 18 19 20 21 22 23 24 25 26

905
FTUS41 KILN 201130
TAFCVG
TAF
KCVG 201130Z 2012/2118 24006KT P6SM SKC
     FM201600 26009KT P6SM SCT060
     FM210000 24004KT P6SM SCT100
     FM210900 20003KT P6SM BKN080
     FM211600 23008KT P6SM SCT080=

USA.gov is the U.S. government's official web portal to all federal, state and local government web resources and services.